createdAt,value
2022-10-17T00:04:06.431Z,8.1
2022-10-17T00:19:48.593Z,7.9
2022-10-17T00:35:30.971Z,6.7
2022-10-17T00:51:13.869Z,6.9
2022-10-17T01:06:56.089Z,8
2022-10-17T01:22:38.563Z,6.9
2022-10-17T01:38:20.783Z,6.6
2022-10-17T01:54:02.935Z,6.8
2022-10-17T02:09:45.186Z,6.4
2022-10-17T02:25:28.092Z,8.1
2022-10-17T02:41:10.940Z,7.5
2022-10-17T02:56:53.548Z,9.8
2022-10-17T03:12:36.175Z,10.3
2022-10-17T03:28:18.323Z,12.1
2022-10-17T03:44:00.761Z,13.7
2022-10-17T03:59:42.889Z,12
2022-10-17T04:15:25.410Z,10.4
2022-10-17T04:31:08.178Z,10.2
2022-10-17T04:46:50.980Z,12.1
2022-10-17T05:02:33.550Z,14.3
2022-10-17T05:18:16.479Z,12.2
2022-10-17T05:33:58.999Z,15.2
2022-10-17T05:49:42.039Z,14.2
2022-10-17T06:05:24.766Z,15.2
2022-10-17T06:21:07.270Z,17.79
2022-10-17T06:36:49.710Z,17.79
2022-10-17T06:52:32.580Z,19.79
2022-10-17T07:08:14.714Z,16.6
2022-10-17T07:23:57.408Z,14.6
2022-10-17T07:39:39.858Z,10.6
2022-10-17T07:55:22.751Z,6.9
2022-10-17T08:11:05.374Z,3.3
2022-10-17T08:26:47.493Z,3.3
2022-10-17T08:42:30.396Z,2.7
2022-10-17T08:58:13.035Z,2.6
2022-10-17T09:13:55.052Z,3.2
2022-10-17T09:29:37.630Z,2.7
2022-10-17T09:45:19.860Z,2.8
2022-10-17T10:01:02.542Z,2.7
2022-10-17T10:16:45.002Z,2.2
2022-10-17T10:32:27.430Z,2.6
2022-10-17T10:48:09.754Z,2.4
2022-10-17T11:03:52.525Z,2.5
2022-10-17T11:19:35.352Z,2.6
2022-10-17T11:35:17.652Z,3.1
2022-10-17T11:51:00.430Z,3.1
2022-10-17T12:06:42.687Z,2.8
2022-10-17T12:22:25.313Z,3.3
2022-10-17T12:38:08.177Z,3
2022-10-17T12:38:55.319Z,3.2
2022-10-17T12:54:38.074Z,2.8
2022-10-17T13:10:20.511Z,2.3
2022-10-17T13:26:03.087Z,2.2
2022-10-17T13:41:45.263Z,2.2
2022-10-17T13:57:27.939Z,2.3
2022-10-17T14:13:10.880Z,2.4
2022-10-17T14:28:53.456Z,2.4
2022-10-17T14:44:35.432Z,2.7
2022-10-17T15:00:18.149Z,3.1
2022-10-17T15:16:00.768Z,2.8
2022-10-17T15:31:42.992Z,2.9
2022-10-17T15:47:25.503Z,3
2022-10-17T16:03:07.648Z,4.6
2022-10-17T16:18:50.094Z,5
2022-10-17T16:34:32.697Z,6.5
2022-10-17T16:50:14.760Z,5.4
2022-10-17T17:05:56.810Z,5.9
2022-10-17T17:21:39.725Z,6.3
2022-10-17T17:53:04.405Z,7.3
2022-10-17T18:08:46.925Z,7.9
2022-10-17T18:24:29.607Z,7.7
2022-10-17T18:40:12.125Z,11
2022-10-17T18:55:54.859Z,8.8
2022-10-17T19:11:37.776Z,11.6
2022-10-17T19:27:20.355Z,10.9
2022-10-17T19:43:03.082Z,9.1
2022-10-17T19:58:45.601Z,7.9
2022-10-17T20:14:28.427Z,11.8
2022-10-17T20:30:10.481Z,9.39
2022-10-17T20:45:53.445Z,10.5
2022-10-17T21:01:36.099Z,23.9
2022-10-17T21:17:19.027Z,14.9
2022-10-17T21:33:01.142Z,17.4
2022-10-17T21:48:43.410Z,14.1
2022-10-17T22:04:26.426Z,13.8
2022-10-17T22:20:09.319Z,13.2
2022-10-17T22:35:52.348Z,16.6
2022-10-17T22:51:34.845Z,16.4
2022-10-17T23:07:17.655Z,15.9
2022-10-17T23:22:59.721Z,18.5
2022-10-17T23:38:42.518Z,20.1
2022-10-17T23:54:25.408Z,18.1
